Layland, West Virginia
Current Conditions -  °F | °C
As of 11:29 PM on Tuesday 21 Oct 2014 (Local Time) from KBKW Reporting Station
Light Rain Light Rain  
Wind Chill: 35°   Ceiling: 1400
Heat Index: 42°   Visibility: 8mi
Dew Point: 39°   Wind: 13mph
Humidity: 89%   Direction: 350°N
Pressure: 30.05"   Gusts: NA
Location:  37.9°N, 80.99°W
Report Text: KBKW 220329Z AUTO 35011KT 8SM -RA SCT007 BKN014 OVC019 06/04 A3005 RMK AO2 P0001 T00560039 TSNO
Loading
Personal Weather Stations






























Interactive Weather Map
Tropical Storm Tracking
New forecast layout! Learn more

10-Day Weather Forecast

Advertisements
Track Severe Weather on mobile